createdAt,value
2023-04-09T00:00:57.991Z,10.50
2023-04-09T00:06:20.932Z,10.50
2023-04-09T00:11:45.957Z,10.50
2023-04-09T00:17:08.993Z,10.40
2023-04-09T00:22:33.128Z,10.40
2023-04-09T00:27:58.101Z,10.40
2023-04-09T00:33:26.988Z,10.30
2023-04-09T00:38:50.385Z,10.20
2023-04-09T00:44:16.285Z,10.20
2023-04-09T00:49:39.031Z,10.10
2023-04-09T00:55:02.956Z,10.00
2023-04-09T01:00:30.980Z,10.00
2023-04-09T01:06:02.968Z,9.90
2023-04-09T01:11:35.156Z,9.90
2023-04-09T01:17:07.951Z,9.90
2023-04-09T01:22:46.159Z,9.80
2023-04-09T01:28:25.122Z,9.80
2023-04-09T01:33:50.028Z,9.70
2023-04-09T01:39:18.709Z,9.70
2023-04-09T01:44:48.174Z,9.70
2023-04-09T01:50:12.034Z,9.60
2023-04-09T01:55:36.092Z,9.60
2023-04-09T02:01:05.116Z,9.60
2023-04-09T02:06:31.063Z,9.60
2023-04-09T02:11:58.278Z,9.60
2023-04-09T02:24:13.079Z,9.50
2023-04-09T02:29:38.082Z,9.60
2023-04-09T02:35:10.053Z,9.50
2023-04-09T02:40:38.198Z,9.50
2023-04-09T02:46:05.292Z,9.50
2023-04-09T02:51:36.145Z,9.50
2023-04-09T02:56:59.252Z,9.50
2023-04-09T03:02:27.282Z,9.50
2023-04-09T03:07:55.148Z,9.50
2023-04-09T03:13:19.160Z,9.50
2023-04-09T03:18:44.099Z,9.50
2023-04-09T03:24:09.055Z,9.50
2023-04-09T03:29:38.088Z,9.50
2023-04-09T03:35:05.180Z,9.50
2023-04-09T03:40:34.090Z,9.50
2023-04-09T03:45:57.120Z,9.50
2023-04-09T03:51:26.273Z,9.50
2023-04-09T03:56:52.108Z,9.50
2023-04-09T04:02:22.323Z,9.50
2023-04-09T04:07:53.128Z,9.40
2023-04-09T04:13:33.284Z,9.40
2023-04-09T04:19:01.114Z,9.40
2023-04-09T04:24:35.339Z,9.40
2023-04-09T04:35:24.648Z,9.40
2023-04-09T04:40:34.842Z,9.40
2023-04-09T04:45:41.568Z,9.40
2023-04-09T04:50:57.280Z,9.40
2023-04-09T04:56:02.222Z,9.40
2023-04-09T05:01:05.529Z,9.40
2023-04-09T05:06:11.966Z,9.30
2023-04-09T05:11:19.672Z,9.40
2023-04-09T05:16:24.252Z,9.30
2023-04-09T05:21:38.598Z,9.30
2023-04-09T05:26:48.063Z,9.40
2023-04-09T05:31:51.742Z,9.30
2023-04-09T05:37:08.344Z,9.30
2023-04-09T05:42:14.738Z,9.30
2023-04-09T05:47:32.321Z,9.30
2023-04-09T05:52:49.740Z,9.30
2023-04-09T05:57:54.538Z,9.30
2023-04-09T06:02:58.681Z,9.30
2023-04-09T06:08:08.237Z,9.30
2023-04-09T06:13:14.332Z,9.40
2023-04-09T06:18:18.204Z,9.40
2023-04-09T06:23:22.847Z,9.50
2023-04-09T06:28:28.320Z,9.60
2023-04-09T06:33:33.365Z,9.60
2023-04-09T06:38:38.124Z,9.60
2023-04-09T06:43:48.368Z,9.60
2023-04-09T06:48:54.890Z,9.70
2023-04-09T06:54:02.910Z,9.70
2023-04-09T06:59:06.202Z,9.80
2023-04-09T07:04:12.801Z,9.80
2023-04-09T07:09:18.337Z,9.80
2023-04-09T07:14:22.126Z,10.00
2023-04-09T07:19:25.319Z,10.10
2023-04-09T07:24:32.650Z,10.10
2023-04-09T07:29:37.725Z,10.30
2023-04-09T07:34:41.784Z,10.40
2023-04-09T07:39:46.685Z,10.50
2023-04-09T07:44:53.837Z,10.70
2023-04-09T07:55:50.270Z,11.10
2023-04-09T08:01:16.731Z,11.30
2023-04-09T08:06:40.239Z,11.50
2023-04-09T08:12:05.292Z,11.70
2023-04-09T08:17:28.325Z,11.90
2023-04-09T08:22:54.437Z,12.10
2023-04-09T08:28:20.355Z,12.20
2023-04-09T08:33:44.378Z,12.40
2023-04-09T08:39:07.277Z,12.60
2023-04-09T08:44:34.319Z,12.70
2023-04-09T08:49:58.269Z,12.90
2023-04-09T08:55:26.426Z,13.10
2023-04-09T09:00:54.319Z,13.10
2023-04-09T09:06:17.364Z,13.30
2023-04-09T09:11:42.476Z,13.30
2023-04-09T09:17:26.201Z,13.40
2023-04-09T09:22:58.406Z,13.50
2023-04-09T09:28:23.280Z,13.60
2023-04-09T09:33:49.573Z,13.80
2023-04-09T09:39:16.329Z,13.90
2023-04-09T09:44:41.519Z,14.00
2023-04-09T09:50:14.570Z,14.20
2023-04-09T09:56:06.779Z,14.40
2023-04-09T10:01:36.407Z,14.60
2023-04-09T10:14:03.358Z,14.60
2023-04-09T10:19:39.436Z,14.60
2023-04-09T10:31:06.209Z,14.70
2023-04-09T10:37:08.510Z,14.60
2023-04-09T10:42:43.323Z,14.60
2023-04-09T10:54:06.387Z,14.60
2023-04-09T11:06:20.404Z,14.60
2023-04-09T11:12:18.479Z,14.50
2023-04-09T11:17:53.476Z,14.60
2023-04-09T11:23:19.017Z,14.60
2023-04-09T11:29:43.348Z,14.50
2023-04-09T11:42:37.346Z,14.50
2023-04-09T11:48:01.402Z,14.50
2023-04-09T11:53:32.605Z,14.60
2023-04-09T11:59:07.425Z,14.50
2023-04-09T12:04:37.745Z,14.60
2023-04-09T12:10:35.295Z,14.60
2023-04-09T12:16:16.683Z,14.70
2023-04-09T12:21:57.048Z,14.70
2023-04-09T12:28:20.525Z,14.70
2023-04-09T12:33:56.389Z,14.80
2023-04-09T12:39:20.494Z,14.90
2023-04-09T12:44:45.537Z,15.00
2023-04-09T12:50:10.425Z,15.00
2023-04-09T12:55:34.440Z,15.00
2023-04-09T13:01:01.439Z,15.00
2023-04-09T13:06:29.434Z,15.00
2023-04-09T13:11:54.913Z,15.10
2023-04-09T13:17:24.828Z,15.10
2023-04-09T13:22:55.473Z,15.20
2023-04-09T13:28:24.515Z,15.30
2023-04-09T13:33:53.493Z,15.20
2023-04-09T13:39:24.575Z,15.20
2023-04-09T13:44:48.732Z,15.30
2023-04-09T13:50:12.444Z,15.30
2023-04-09T13:55:52.315Z,15.40
2023-04-09T14:01:17.609Z,15.40
2023-04-09T14:06:44.594Z,15.50
2023-04-09T14:12:09.558Z,15.70
2023-04-09T14:17:50.069Z,16.00
2023-04-09T14:23:32.338Z,16.20
2023-04-09T14:29:23.595Z,16.30
2023-04-09T14:34:46.481Z,16.50
2023-04-09T14:40:09.453Z,16.70
2023-04-09T14:45:34.500Z,16.80
2023-04-09T14:50:58.551Z,16.90
2023-04-09T14:56:22.618Z,16.80
2023-04-09T15:01:55.341Z,16.60
2023-04-09T15:07:20.923Z,16.40
2023-04-09T15:12:47.568Z,16.40
2023-04-09T15:18:12.599Z,16.50
2023-04-09T15:23:36.555Z,16.50
2023-04-09T15:29:42.214Z,16.60
2023-04-09T15:47:20.804Z,16.70
2023-04-09T15:53:06.488Z,16.70
2023-04-09T16:05:47.257Z,16.80
2023-04-09T16:18:34.792Z,17.20
2023-04-09T16:24:08.731Z,17.50
2023-04-09T16:29:36.650Z,17.60
2023-04-09T16:34:59.789Z,17.80
2023-04-09T16:40:24.593Z,17.90
2023-04-09T16:45:49.604Z,18.00
2023-04-09T16:51:16.242Z,18.10
2023-04-09T16:56:38.687Z,18.10
2023-04-09T17:02:03.644Z,18.10
2023-04-09T17:07:33.864Z,18.10
2023-04-09T17:12:58.694Z,18.10
2023-04-09T17:18:23.569Z,18.00
2023-04-09T17:23:54.042Z,17.80
2023-04-09T17:29:16.612Z,17.70
2023-04-09T17:40:29.700Z,17.40
2023-04-09T17:45:53.767Z,17.30
2023-04-09T17:51:21.600Z,17.20
2023-04-09T17:56:55.277Z,17.10
2023-04-09T18:02:17.971Z,16.90
2023-04-09T18:07:46.665Z,16.60
2023-04-09T18:13:10.761Z,16.40
2023-04-09T18:18:35.672Z,16.20
2023-04-09T18:24:03.716Z,16.00
2023-04-09T18:29:29.740Z,15.70
2023-04-09T18:35:06.521Z,15.50
2023-04-09T18:53:02.969Z,14.80
2023-04-09T18:59:34.559Z,14.50
2023-04-09T19:11:51.809Z,14.10
2023-04-09T19:17:51.808Z,14.00
2023-04-09T19:24:07.076Z,13.80
2023-04-09T19:36:19.728Z,13.40
2023-04-09T19:41:51.020Z,13.20
2023-04-09T19:47:29.708Z,13.10
2023-04-09T19:53:32.503Z,12.90
2023-04-09T20:00:04.561Z,12.80
2023-04-09T20:06:06.760Z,12.70
2023-04-09T20:12:46.264Z,12.50
2023-04-09T20:24:55.004Z,12.20
2023-04-09T20:30:49.851Z,12.10
2023-04-09T20:36:20.323Z,11.90
2023-04-09T20:42:28.118Z,11.80
2023-04-09T20:47:55.759Z,11.70
2023-04-09T20:53:49.049Z,11.70
2023-04-09T20:59:21.548Z,11.50
2023-04-09T21:05:11.755Z,11.50
2023-04-09T21:11:27.686Z,11.30
2023-04-09T21:23:13.759Z,11.10
2023-04-09T21:35:33.505Z,10.90
2023-04-09T21:46:29.834Z,10.70
2023-04-09T21:52:24.574Z,10.70
2023-04-09T21:59:22.896Z,10.60
2023-04-09T22:05:08.270Z,10.30
2023-04-09T22:10:36.610Z,10.10
2023-04-09T22:16:27.849Z,9.90
2023-04-09T22:22:40.703Z,9.80
2023-04-09T22:34:39.007Z,9.70
2023-04-09T22:41:37.902Z,9.70
2023-04-09T22:47:20.945Z,9.60
2023-04-09T22:53:07.816Z,9.50
2023-04-09T22:58:33.754Z,9.40
2023-04-09T23:03:58.835Z,9.30
2023-04-09T23:09:25.342Z,9.20
2023-04-09T23:14:49.456Z,9.20
2023-04-09T23:20:17.838Z,9.00
2023-04-09T23:25:40.847Z,8.80
2023-04-09T23:31:04.766Z,8.60
2023-04-09T23:36:30.861Z,8.40
2023-04-09T23:41:53.808Z,8.30
2023-04-09T23:47:24.274Z,8.30
2023-04-09T23:52:54.791Z,8.30
